Terminal Aerodrome Forecast
Issued by NWS

Home | Current Version | Previous Version | Graphics & Text | Print | Product List | Glossary On
Versions: 1 2 3 4 5 6 7 8 9 10 11 12 13 14 15 16 17 18 19
000
FTUS43 KICT 022332
TAFCNU
TAF
KCNU 022332Z 0300/0324 16009KT P6SM OVC020
     FM030400 17013KT 4SM BR OVC010
     FM030800 18015G22KT 2SM -DZ OVC008
     FM031500 21019G26KT 5SM BR OVC018
     FM031700 22020G28KT P6SM OVC025
     FM032100 35017G25KT P6SM BKN030 OVC250=

USA.gov is the U.S. government's official web portal to all federal, state and local government web resources and services.